sensor_id;sensor_type;location;lat;lon;timestamp;pressure;altitude;pressure_sealevel;temperature;humidity
19624;BME280;9959;49.798;9.928;2023-04-08T00:00:58;99936.34;;;4.59;100.00
19624;BME280;9959;49.798;9.928;2023-04-08T00:03:26;99942.00;;;4.56;100.00
19624;BME280;9959;49.798;9.928;2023-04-08T00:05:52;99944.84;;;4.54;100.00
19624;BME280;9959;49.798;9.928;2023-04-08T00:08:19;99936.50;;;4.57;100.00
19624;BME280;9959;49.798;9.928;2023-04-08T00:10:47;99941.50;;;4.52;100.00
19624;BME280;9959;49.798;9.928;2023-04-08T00:13:14;99946.66;;;4.46;100.00
19624;BME280;9959;49.798;9.928;2023-04-08T00:15:41;99948.97;;;4.40;100.00
19624;BME280;9959;49.798;9.928;2023-04-08T00:18:08;99944.63;;;4.39;100.00
19624;BME280;9959;49.798;9.928;2023-04-08T00:20:35;99954.16;;;4.34;100.00
19624;BME280;9959;49.798;9.928;2023-04-08T00:23:02;99949.78;;;4.25;100.00
19624;BME280;9959;49.798;9.928;2023-04-08T00:25:29;99948.97;;;4.24;100.00
19624;BME280;9959;49.798;9.928;2023-04-08T00:27:56;99951.94;;;4.21;100.00
19624;BME280;9959;49.798;9.928;2023-04-08T00:30:23;99957.28;;;4.21;100.00
19624;BME280;9959;49.798;9.928;2023-04-08T00:32:50;99957.94;;;4.15;100.00
19624;BME280;9959;49.798;9.928;2023-04-08T00:35:17;99962.25;;;4.16;100.00
19624;BME280;9959;49.798;9.928;2023-04-08T00:37:44;99959.91;;;4.05;100.00
19624;BME280;9959;49.798;9.928;2023-04-08T00:40:11;99957.72;;;4.00;100.00
19624;BME280;9959;49.798;9.928;2023-04-08T00:42:38;99955.59;;;4.04;100.00
19624;BME280;9959;49.798;9.928;2023-04-08T00:45:05;99958.53;;;3.93;100.00
19624;BME280;9959;49.798;9.928;2023-04-08T00:47:34;99963.91;;;4.01;100.00
19624;BME280;9959;49.798;9.928;2023-04-08T00:50:02;99967.16;;;3.87;100.00
19624;BME280;9959;49.798;9.928;2023-04-08T00:52:29;99970.13;;;3.76;100.00
19624;BME280;9959;49.798;9.928;2023-04-08T00:54:56;99958.84;;;3.82;100.00
19624;BME280;9959;49.798;9.928;2023-04-08T00:57:23;99960.16;;;3.86;100.00
19624;BME280;9959;49.798;9.928;2023-04-08T00:59:50;99967.84;;;3.81;100.00
19624;BME280;9959;49.798;9.928;2023-04-08T01:05:07;99969.81;;;3.79;100.00
19624;BME280;9959;49.798;9.928;2023-04-08T01:07:47;99969.72;;;3.62;100.00
19624;BME280;9959;49.798;9.928;2023-04-08T01:10:19;99968.06;;;3.61;100.00
19624;BME280;9959;49.798;9.928;2023-04-08T01:12:53;99965.03;;;3.56;100.00
19624;BME280;9959;49.798;9.928;2023-04-08T01:15:21;99962.88;;;3.60;100.00
19624;BME280;9959;49.798;9.928;2023-04-08T01:17:52;99961.06;;;3.60;100.00
19624;BME280;9959;49.798;9.928;2023-04-08T01:20:21;99967.38;;;3.59;100.00
19624;BME280;9959;49.798;9.928;2023-04-08T01:25:29;99966.69;;;3.57;100.00
19624;BME280;9959;49.798;9.928;2023-04-08T01:28:06;99972.53;;;3.53;100.00
19624;BME280;9959;49.798;9.928;2023-04-08T01:30:34;99979.47;;;3.46;100.00
19624;BME280;9959;49.798;9.928;2023-04-08T01:33:04;99979.56;;;3.36;100.00
19624;BME280;9959;49.798;9.928;2023-04-08T01:35:35;99979.06;;;3.32;100.00
19624;BME280;9959;49.798;9.928;2023-04-08T01:38:04;99967.25;;;3.35;100.00
19624;BME280;9959;49.798;9.928;2023-04-08T01:40:34;99968.09;;;3.35;100.00
19624;BME280;9959;49.798;9.928;2023-04-08T01:43:05;99967.09;;;3.36;100.00
19624;BME280;9959;49.798;9.928;2023-04-08T01:45:33;99962.78;;;3.35;100.00
19624;BME280;9959;49.798;9.928;2023-04-08T01:48:00;99962.91;;;3.34;100.00
19624;BME280;9959;49.798;9.928;2023-04-08T01:50:28;99963.22;;;3.31;100.00
19624;BME280;9959;49.798;9.928;2023-04-08T01:52:58;99960.22;;;3.26;100.00
19624;BME280;9959;49.798;9.928;2023-04-08T01:55:26;99967.69;;;3.22;100.00
19624;BME280;9959;49.798;9.928;2023-04-08T01:57:55;99968.84;;;3.20;100.00
19624;BME280;9959;49.798;9.928;2023-04-08T02:00:28;99964.56;;;3.27;100.00
19624;BME280;9959;49.798;9.928;2023-04-08T02:02:57;99967.69;;;3.22;100.00
19624;BME280;9959;49.798;9.928;2023-04-08T02:05:26;99960.91;;;3.28;100.00
19624;BME280;9959;49.798;9.928;2023-04-08T02:07:53;99962.56;;;3.29;100.00
19624;BME280;9959;49.798;9.928;2023-04-08T02:10:20;99969.88;;;3.27;100.00
19624;BME280;9959;49.798;9.928;2023-04-08T02:12:46;99968.41;;;3.32;100.00
19624;BME280;9959;49.798;9.928;2023-04-08T02:15:13;99967.88;;;3.29;100.00
19624;BME280;9959;49.798;9.928;2023-04-08T02:17:54;99964.50;;;3.19;100.00
19624;BME280;9959;49.798;9.928;2023-04-08T02:20:36;99968.84;;;3.20;100.00
19624;BME280;9959;49.798;9.928;2023-04-08T02:23:14;99967.69;;;3.22;100.00
19624;BME280;9959;49.798;9.928;2023-04-08T02:25:44;99968.16;;;3.18;100.00
19624;BME280;9959;49.798;9.928;2023-04-08T02:28:12;99969.16;;;3.17;100.00
19624;BME280;9959;49.798;9.928;2023-04-08T02:30:42;99970.28;;;3.14;100.00
19624;BME280;9959;49.798;9.928;2023-04-08T02:33:10;99979.81;;;3.17;100.00
19624;BME280;9959;49.798;9.928;2023-04-08T02:35:39;99976.75;;;3.12;100.00
19624;BME280;9959;49.798;9.928;2023-04-08T02:38:08;99981.56;;;3.08;100.00
19624;BME280;9959;49.798;9.928;2023-04-08T02:40:36;99977.91;;;3.09;100.00
19624;BME280;9959;49.798;9.928;2023-04-08T02:43:03;99977.38;;;3.05;100.00
19624;BME280;9959;49.798;9.928;2023-04-08T02:45:32;99985.44;;;3.14;100.00
19624;BME280;9959;49.798;9.928;2023-04-08T02:48:01;99980.41;;;3.11;100.00
19624;BME280;9959;49.798;9.928;2023-04-08T02:50:28;99990.22;;;3.10;100.00
19624;BME280;9959;49.798;9.928;2023-04-08T02:52:55;99994.09;;;3.16;100.00
19624;BME280;9959;49.798;9.928;2023-04-08T02:55:21;99993.56;;;3.12;100.00
19624;BME280;9959;49.798;9.928;2023-04-08T02:57:49;99988.34;;;3.02;100.00
19624;BME280;9959;49.798;9.928;2023-04-08T03:00:19;100001.72;;;3.11;100.00
19624;BME280;9959;49.798;9.928;2023-04-08T03:02:45;99991.97;;;3.01;100.00
19624;BME280;9959;49.798;9.928;2023-04-08T03:05:12;99997.53;;;3.08;100.00
19624;BME280;9959;49.798;9.928;2023-04-08T03:07:41;100003.38;;;3.12;100.00
19624;BME280;9959;49.798;9.928;2023-04-08T03:10:08;100003.31;;;3.03;100.00
19624;BME280;9959;49.798;9.928;2023-04-08T03:12:35;100002.97;;;2.98;100.00
19624;BME280;9959;49.798;9.928;2023-04-08T03:15:02;100004.84;;;3.06;100.00
19624;BME280;9959;49.798;9.928;2023-04-08T03:17:30;100003.31;;;3.03;100.00
19624;BME280;9959;49.798;9.928;2023-04-08T03:20:00;99998.63;;;2.97;100.00
19624;BME280;9959;49.798;9.928;2023-04-08T03:22:27;100005.25;;;2.93;100.00
19624;BME280;9959;49.798;9.928;2023-04-08T03:24:54;99996.97;;;2.96;100.00
19624;BME280;9959;49.798;9.928;2023-04-08T03:27:21;99993.31;;;2.97;100.00
19624;BME280;9959;49.798;9.928;2023-04-08T03:29:48;100003.56;;;2.92;100.00
19624;BME280;9959;49.798;9.928;2023-04-08T03:32:15;99995.22;;;2.87;100.00
19624;BME280;9959;49.798;9.928;2023-04-08T03:34:42;100004.19;;;2.86;100.00
19624;BME280;9959;49.798;9.928;2023-04-08T03:37:09;100002.50;;;2.85;100.00
19624;BME280;9959;49.798;9.928;2023-04-08T03:39:37;100007.31;;;2.82;100.00
19624;BME280;9959;49.798;9.928;2023-04-08T03:42:04;100010.50;;;2.85;100.00
19624;BME280;9959;49.798;9.928;2023-04-08T03:44:30;100008.13;;;2.82;100.00
19624;BME280;9959;49.798;9.928;2023-04-08T03:46:57;100010.94;;;2.81;100.00
19624;BME280;9959;49.798;9.928;2023-04-08T03:49:24;100008.66;;;2.86;100.00
19624;BME280;9959;49.798;9.928;2023-04-08T03:51:51;100005.56;;;2.90;100.00
19624;BME280;9959;49.798;9.928;2023-04-08T03:54:18;100007.06;;;2.93;100.00
19624;BME280;9959;49.798;9.928;2023-04-08T03:56:45;100008.66;;;2.86;100.00
19624;BME280;9959;49.798;9.928;2023-04-08T03:59:12;100008.13;;;2.82;100.00
19624;BME280;9959;49.798;9.928;2023-04-08T04:01:39;100005.84;;;2.87;100.00
19624;BME280;9959;49.798;9.928;2023-04-08T04:04:07;100006.91;;;2.94;100.00
19624;BME280;9959;49.798;9.928;2023-04-08T04:06:34;100011.25;;;2.95;100.00
19624;BME280;9959;49.798;9.928;2023-04-08T04:09:01;100016.03;;;2.92;100.00
19624;BME280;9959;49.798;9.928;2023-04-08T04:11:28;100012.09;;;2.96;100.00
19624;BME280;9959;49.798;9.928;2023-04-08T04:13:55;100019.84;;;2.89;100.00
19624;BME280;9959;49.798;9.928;2023-04-08T04:16:21;100019.47;;;2.84;100.00
19624;BME280;9959;49.798;9.928;2023-04-08T04:18:48;100019.84;;;2.89;100.00
19624;BME280;9959;49.798;9.928;2023-04-08T04:21:16;100013.91;;;2.78;100.00
19624;BME280;9959;49.798;9.928;2023-04-08T04:23:43;100018.25;;;2.79;100.00
19624;BME280;9959;49.798;9.928;2023-04-08T04:26:10;100022.03;;;2.76;100.00
19624;BME280;9959;49.798;9.928;2023-04-08T04:28:37;100020.22;;;2.77;100.00
19624;BME280;9959;49.798;9.928;2023-04-08T04:31:04;100025.69;;;2.75;100.00
19624;BME280;9959;49.798;9.928;2023-04-08T04:33:31;100028.34;;;2.75;100.00
19624;BME280;9959;49.798;9.928;2023-04-08T04:35:58;100024.69;;;2.76;100.00
19624;BME280;9959;49.798;9.928;2023-04-08T04:38:25;100034.75;;;2.82;100.00
19624;BME280;9959;49.798;9.928;2023-04-08T04:40:52;100031.63;;;2.87;100.00
19624;BME280;9959;49.798;9.928;2023-04-08T04:43:19;100028.22;;;2.94;100.00
19624;BME280;9959;49.798;9.928;2023-04-08T04:45:46;100038.56;;;2.97;100.00
19624;BME280;9959;49.798;9.928;2023-04-08T04:48:12;100036.03;;;2.96;100.00
19624;BME280;9959;49.798;9.928;2023-04-08T04:50:39;100031.75;;;3.03;100.00
19624;BME280;9959;49.798;9.928;2023-04-08T04:53:06;100030.31;;;3.09;100.00
19624;BME280;9959;49.798;9.928;2023-04-08T04:55:33;100026.34;;;3.13;100.00
19624;BME280;9959;49.798;9.928;2023-04-08T04:58:02;100038.38;;;3.17;100.00
19624;BME280;9959;49.798;9.928;2023-04-08T05:00:29;100035.31;;;3.12;100.00
19624;BME280;9959;49.798;9.928;2023-04-08T05:02:56;100036.09;;;3.22;100.00
19624;BME280;9959;49.798;9.928;2023-04-08T05:05:23;100037.28;;;3.27;100.00
19624;BME280;9959;49.798;9.928;2023-04-08T05:07:50;100039.56;;;3.22;100.00
19624;BME280;9959;49.798;9.928;2023-04-08T05:10:17;100046.13;;;3.28;100.00
19624;BME280;9959;49.798;9.928;2023-04-08T05:12:44;100046.75;;;3.30;100.00
19624;BME280;9959;49.798;9.928;2023-04-08T05:15:11;100048.88;;;3.44;100.00
19624;BME280;9959;49.798;9.928;2023-04-08T05:17:38;100053.84;;;3.65;100.00
19624;BME280;9959;49.798;9.928;2023-04-08T05:20:05;100056.34;;;3.66;100.00
19624;BME280;9959;49.798;9.928;2023-04-08T05:22:32;100055.03;;;3.70;100.00
19624;BME280;9959;49.798;9.928;2023-04-08T05:25:00;100057.50;;;3.64;100.00
19624;BME280;9959;49.798;9.928;2023-04-08T05:27:27;100063.56;;;3.74;100.00
19624;BME280;9959;49.798;9.928;2023-04-08T05:29:54;100066.06;;;3.76;100.00
19624;BME280;9959;49.798;9.928;2023-04-08T05:32:21;100063.63;;;3.90;100.00
19624;BME280;9959;49.798;9.928;2023-04-08T05:34:48;100050.78;;;3.86;100.00
19624;BME280;9959;49.798;9.928;2023-04-08T05:37:14;100060.19;;;3.98;100.00
19624;BME280;9959;49.798;9.928;2023-04-08T05:39:41;100062.91;;;4.06;100.00
19624;BME280;9959;49.798;9.928;2023-04-08T05:42:08;100070.91;;;4.14;100.00
19624;BME280;9959;49.798;9.928;2023-04-08T05:44:36;100063.22;;;4.11;100.00
19624;BME280;9959;49.798;9.928;2023-04-08T05:47:07;100069.59;;;4.18;100.00
19624;BME280;9959;49.798;9.928;2023-04-08T05:49:34;100076.13;;;4.24;100.00
19624;BME280;9959;49.798;9.928;2023-04-08T05:52:01;100073.34;;;4.41;100.00
19624;BME280;9959;49.798;9.928;2023-04-08T05:54:29;100072.25;;;4.18;100.00
19624;BME280;9959;49.798;9.928;2023-04-08T05:56:56;100080.25;;;4.10;100.00
19624;BME280;9959;49.798;9.928;2023-04-08T05:59:23;100080.63;;;4.23;100.00
19624;BME280;9959;49.798;9.928;2023-04-08T06:01:50;100080.34;;;4.42;100.00
19624;BME280;9959;49.798;9.928;2023-04-08T06:04:17;100080.34;;;4.42;100.00
19624;BME280;9959;49.798;9.928;2023-04-08T06:06:45;100085.00;;;4.40;100.00
19624;BME280;9959;49.798;9.928;2023-04-08T06:09:12;100089.66;;;4.38;100.00
19624;BME280;9959;49.798;9.928;2023-04-08T06:11:39;100089.34;;;4.41;100.00
19624;BME280;9959;49.798;9.928;2023-04-08T06:14:07;100092.38;;;4.47;100.00
19624;BME280;9959;49.798;9.928;2023-04-08T06:16:34;100101.06;;;4.49;100.00
19624;BME280;9959;49.798;9.928;2023-04-08T06:19:00;100099.50;;;4.38;100.00
19624;BME280;9959;49.798;9.928;2023-04-08T06:21:28;100101.44;;;4.62;100.00
19624;BME280;9959;49.798;9.928;2023-04-08T06:23:55;100096.94;;;4.62;100.00
19624;BME280;9959;49.798;9.928;2023-04-08T06:26:22;100095.47;;;4.76;100.00
19624;BME280;9959;49.798;9.928;2023-04-08T06:28:49;100098.66;;;4.80;100.00
19624;BME280;9959;49.798;9.928;2023-04-08T06:31:17;100098.78;;;4.70;100.00
19624;BME280;9959;49.798;9.928;2023-04-08T06:33:44;100106.50;;;4.81;100.00
19624;BME280;9959;49.798;9.928;2023-04-08T06:36:11;100106.16;;;4.84;100.00
19624;BME280;9959;49.798;9.928;2023-04-08T06:38:38;100106.19;;;5.00;99.41
19624;BME280;9959;49.798;9.928;2023-04-08T06:41:06;100110.19;;;4.88;99.61
19624;BME280;9959;49.798;9.928;2023-04-08T06:43:34;100103.34;;;5.02;100.00
19624;BME280;9959;49.798;9.928;2023-04-08T06:46:03;100111.81;;;4.81;99.18
19624;BME280;9959;49.798;9.928;2023-04-08T06:48:30;100109.19;;;4.89;98.37
19624;BME280;9959;49.798;9.928;2023-04-08T06:50:58;100110.88;;;5.15;97.78
19624;BME280;9959;49.798;9.928;2023-04-08T06:53:26;100107.34;;;4.98;97.39
19624;BME280;9959;49.798;9.928;2023-04-08T06:55:58;100113.19;;;5.01;97.26
19624;BME280;9959;49.798;9.928;2023-04-08T06:58:25;100113.34;;;5.00;96.95
19624;BME280;9959;49.798;9.928;2023-04-08T07:00:53;100115.22;;;5.16;95.54
19624;BME280;9959;49.798;9.928;2023-04-08T07:03:22;100126.56;;;5.26;95.15
19624;BME280;9959;49.798;9.928;2023-04-08T07:05:49;100121.72;;;5.21;94.49
19624;BME280;9959;49.798;9.928;2023-04-08T07:08:16;100133.94;;;5.40;94.23
19624;BME280;9959;49.798;9.928;2023-04-08T07:10:43;100133.59;;;5.67;93.39
19624;BME280;9959;49.798;9.928;2023-04-08T07:13:10;100134.56;;;5.83;90.98
19624;BME280;9959;49.798;9.928;2023-04-08T07:15:37;100141.06;;;6.21;90.56
19624;BME280;9959;49.798;9.928;2023-04-08T07:18:04;100134.84;;;6.28;87.86
19624;BME280;9959;49.798;9.928;2023-04-08T07:20:31;100129.09;;;6.48;87.92
19624;BME280;9959;49.798;9.928;2023-04-08T07:23:04;100129.38;;;6.05;88.43
19624;BME280;9959;49.798;9.928;2023-04-08T07:25:32;100137.56;;;6.12;88.78
19624;BME280;9959;49.798;9.928;2023-04-08T07:28:00;100144.56;;;6.21;87.90
19624;BME280;9959;49.798;9.928;2023-04-08T07:30:27;100146.97;;;6.00;88.45
19624;BME280;9959;49.798;9.928;2023-04-08T07:32:53;100132.97;;;6.37;87.59
19624;BME280;9959;49.798;9.928;2023-04-08T07:35:23;100142.56;;;6.23;87.61
19624;BME280;9959;49.798;9.928;2023-04-08T07:37:51;100147.84;;;6.39;86.60
19624;BME280;9959;49.798;9.928;2023-04-08T07:40:18;100149.50;;;6.40;87.03
19624;BME280;9959;49.798;9.928;2023-04-08T07:42:45;100154.88;;;6.40;85.38
19624;BME280;9959;49.798;9.928;2023-04-08T07:45:13;100154.00;;;6.56;84.73
19624;BME280;9959;49.798;9.928;2023-04-08T07:47:40;100156.38;;;6.35;85.32
19624;BME280;9959;49.798;9.928;2023-04-08T07:50:07;100163.91;;;6.39;85.60
19624;BME280;9959;49.798;9.928;2023-04-08T07:52:34;100164.53;;;6.50;84.86
19624;BME280;9959;49.798;9.928;2023-04-08T07:55:01;100165.50;;;6.57;84.44
19624;BME280;9959;49.798;9.928;2023-04-08T07:57:27;100164.53;;;6.50;83.93
19624;BME280;9959;49.798;9.928;2023-04-08T07:59:54;100171.94;;;6.31;84.21
19624;BME280;9959;49.798;9.928;2023-04-08T08:02:22;100166.25;;;6.34;84.87
19624;BME280;9959;49.798;9.928;2023-04-08T08:04:49;100170.72;;;6.50;83.16
19624;BME280;9959;49.798;9.928;2023-04-08T08:07:16;100170.56;;;6.52;82.72
19624;BME280;9959;49.798;9.928;2023-04-08T08:09:43;100171.25;;;6.37;82.85
19624;BME280;9959;49.798;9.928;2023-04-08T08:12:10;100166.91;;;6.44;83.71
19624;BME280;9959;49.798;9.928;2023-04-08T08:15:32;100171.59;;;6.42;83.35
19624;BME280;9959;49.798;9.928;2023-04-08T08:17:59;100170.59;;;6.83;78.98
19624;BME280;9959;49.798;9.928;2023-04-08T08:20:26;100173.84;;;6.62;79.37
19624;BME280;9959;49.798;9.928;2023-04-08T08:22:53;100175.72;;;6.92;75.74
19624;BME280;9959;49.798;9.928;2023-04-08T08:25:23;100177.78;;;7.13;76.78
19624;BME280;9959;49.798;9.928;2023-04-08T08:27:51;100170.34;;;7.23;75.14
19624;BME280;9959;49.798;9.928;2023-04-08T08:30:18;100184.94;;;7.21;75.31
19624;BME280;9959;49.798;9.928;2023-04-08T08:32:47;100184.09;;;7.20;74.32
19624;BME280;9959;49.798;9.928;2023-04-08T08:35:15;100180.78;;;7.41;74.18
19624;BME280;9959;49.798;9.928;2023-04-08T08:37:42;100180.91;;;7.25;74.28
19624;BME280;9959;49.798;9.928;2023-04-08T08:40:13;100184.84;;;7.37;73.18
19624;BME280;9959;49.798;9.928;2023-04-08T08:42:40;100188.25;;;7.31;73.29
19624;BME280;9959;49.798;9.928;2023-04-08T08:45:07;100190.56;;;7.34;72.82
19624;BME280;9959;49.798;9.928;2023-04-08T08:47:34;100198.31;;;7.29;73.04
19624;BME280;9959;49.798;9.928;2023-04-08T08:50:01;100204.34;;;7.23;73.08
19624;BME280;9959;49.798;9.928;2023-04-08T08:52:28;100198.00;;;7.24;72.20
19624;BME280;9959;49.798;9.928;2023-04-08T08:54:58;100203.88;;;7.42;72.18
19624;BME280;9959;49.798;9.928;2023-04-08T08:57:25;100206.34;;;7.29;72.38
19624;BME280;9959;49.798;9.928;2023-04-08T08:59:52;100209.69;;;7.31;71.73
19624;BME280;9959;49.798;9.928;2023-04-08T09:02:27;100214.53;;;7.58;71.03
19624;BME280;9959;49.798;9.928;2023-04-08T09:04:56;100204.25;;;7.39;70.96
19624;BME280;9959;49.798;9.928;2023-04-08T09:07:25;100207.44;;;7.65;70.90
19624;BME280;9959;49.798;9.928;2023-04-08T09:09:53;100215.56;;;7.95;70.23
19624;BME280;9959;49.798;9.928;2023-04-08T09:12:23;100208.22;;;8.26;68.92
19624;BME280;9959;49.798;9.928;2023-04-08T09:15:10;100208.38;;;8.33;67.52
19624;BME280;9959;49.798;9.928;2023-04-08T09:17:39;100220.53;;;8.73;66.04
19624;BME280;9959;49.798;9.928;2023-04-08T09:20:08;100221.81;;;8.62;65.97
19624;BME280;9959;49.798;9.928;2023-04-08T09:25:30;100205.50;;;9.29;64.04
19624;BME280;9959;49.798;9.928;2023-04-08T09:27:58;100209.56;;;8.89;65.84
19624;BME280;9959;49.798;9.928;2023-04-08T09:30:26;100203.28;;;9.54;63.82
19624;BME280;9959;49.798;9.928;2023-04-08T09:32:57;100220.47;;;9.53;63.18
19624;BME280;9959;49.798;9.928;2023-04-08T09:35:24;100212.75;;;9.50;63.19
19624;BME280;9959;49.798;9.928;2023-04-08T09:37:51;100216.41;;;9.64;63.18
19624;BME280;9959;49.798;9.928;2023-04-08T09:40:18;100206.84;;;9.40;63.46
19624;BME280;9959;49.798;9.928;2023-04-08T09:42:50;100215.34;;;10.29;60.96
19624;BME280;9959;49.798;9.928;2023-04-08T09:45:19;100217.22;;;9.85;61.12
19624;BME280;9959;49.798;9.928;2023-04-08T09:50:23;100219.16;;;9.92;62.76
19624;BME280;9959;49.798;9.928;2023-04-08T09:52:59;100226.72;;;9.60;62.44
19624;BME280;9959;49.798;9.928;2023-04-08T09:55:29;100221.66;;;9.72;62.27
19624;BME280;9959;49.798;9.928;2023-04-08T09:58:18;100217.38;;;9.99;61.69
19624;BME280;9959;49.798;9.928;2023-04-08T10:00:49;100227.88;;;9.72;62.15
19624;BME280;9959;49.798;9.928;2023-04-08T10:03:26;100217.13;;;9.72;63.59
19624;BME280;9959;49.798;9.928;2023-04-08T10:05:55;100207.63;;;9.98;61.94
19624;BME280;9959;49.798;9.928;2023-04-08T10:08:23;100201.84;;;10.22;61.11
19624;BME280;9959;49.798;9.928;2023-04-08T10:10:52;100216.75;;;10.87;59.50
19624;BME280;9959;49.798;9.928;2023-04-08T10:13:20;100213.50;;;9.87;61.64
19624;BME280;9959;49.798;9.928;2023-04-08T10:15:47;100225.56;;;9.69;63.52
19624;BME280;9959;49.798;9.928;2023-04-08T10:20:46;100218.78;;;9.95;63.89
19624;BME280;9959;49.798;9.928;2023-04-08T10:23:15;100218.91;;;10.08;63.52
19624;BME280;9959;49.798;9.928;2023-04-08T10:25:43;100216.56;;;9.56;65.39
19624;BME280;9959;49.798;9.928;2023-04-08T10:30:41;100215.25;;;9.52;65.65
19624;BME280;9959;49.798;9.928;2023-04-08T10:35:42;100182.84;;;9.81;64.46
19624;BME280;9959;49.798;9.928;2023-04-08T10:38:13;100184.59;;;9.10;66.77
19624;BME280;9959;49.798;9.928;2023-04-08T10:40:42;100191.16;;;9.22;66.96
19624;BME280;9959;49.798;9.928;2023-04-08T10:43:10;100201.75;;;9.66;65.50
19624;BME280;9959;49.798;9.928;2023-04-08T10:45:38;100200.16;;;9.72;65.27
19624;BME280;9959;49.798;9.928;2023-04-08T10:48:32;100205.84;;;9.62;66.31
19624;BME280;9959;49.798;9.928;2023-04-08T10:51:00;100201.66;;;9.38;66.97
19624;BME280;9959;49.798;9.928;2023-04-08T10:53:35;100196.63;;;9.71;66.19
19624;BME280;9959;49.798;9.928;2023-04-08T10:56:06;100201.09;;;9.85;65.09
19624;BME280;9959;49.798;9.928;2023-04-08T10:58:34;100205.81;;;10.05;64.84
19624;BME280;9959;49.798;9.928;2023-04-08T11:01:04;100210.31;;;9.98;64.50
19624;BME280;9959;49.798;9.928;2023-04-08T11:03:33;100217.50;;;9.69;65.49
19624;BME280;9959;49.798;9.928;2023-04-08T11:06:02;100215.47;;;9.71;65.46
19624;BME280;9959;49.798;9.928;2023-04-08T11:08:30;100208.28;;;9.57;66.57
19624;BME280;9959;49.798;9.928;2023-04-08T11:10:58;100215.97;;;9.81;65.49
19624;BME280;9959;49.798;9.928;2023-04-08T11:13:30;100207.75;;;9.90;65.38
19624;BME280;9959;49.798;9.928;2023-04-08T11:15:59;100201.34;;;9.91;65.09
19624;BME280;9959;49.798;9.928;2023-04-08T11:18:26;100206.03;;;10.03;64.92
19624;BME280;9959;49.798;9.928;2023-04-08T11:20:54;100212.63;;;10.01;65.09
19624;BME280;9959;49.798;9.928;2023-04-08T11:23:27;100206.16;;;9.95;65.38
19624;BME280;9959;49.798;9.928;2023-04-08T11:25:54;100208.44;;;10.20;65.20
19624;BME280;9959;49.798;9.928;2023-04-08T11:28:22;100216.03;;;9.67;65.92
19624;BME280;9959;49.798;9.928;2023-04-08T11:30:50;100218.25;;;9.63;66.74
19624;BME280;9959;49.798;9.928;2023-04-08T11:33:18;100211.72;;;9.94;66.24
19624;BME280;9959;49.798;9.928;2023-04-08T11:35:49;100212.09;;;10.12;64.95
19624;BME280;9959;49.798;9.928;2023-04-08T11:38:21;100206.03;;;9.82;65.77
19624;BME280;9959;49.798;9.928;2023-04-08T11:40:56;100205.56;;;10.00;65.46
19624;BME280;9959;49.798;9.928;2023-04-08T11:43:26;100200.47;;;9.83;65.41
19624;BME280;9959;49.798;9.928;2023-04-08T11:45:54;100193.66;;;9.88;65.43
19624;BME280;9959;49.798;9.928;2023-04-08T11:48:21;100198.19;;;10.30;63.88
19624;BME280;9959;49.798;9.928;2023-04-08T11:51:01;100198.44;;;10.76;63.47
19624;BME280;9959;49.798;9.928;2023-04-08T11:53:29;100193.97;;;10.90;63.65
19624;BME280;9959;49.798;9.928;2023-04-08T11:55:56;100194.91;;;11.16;61.65
19624;BME280;9959;49.798;9.928;2023-04-08T11:58:23;100194.06;;;11.23;62.11
19624;BME280;9959;49.798;9.928;2023-04-08T12:00:50;100195.31;;;10.72;62.68
19624;BME280;9959;49.798;9.928;2023-04-08T12:03:17;100198.44;;;10.76;62.53
19624;BME280;9959;49.798;9.928;2023-04-08T12:05:44;100197.56;;;10.69;62.47
19624;BME280;9959;49.798;9.928;2023-04-08T12:08:12;100201.94;;;10.70;62.28
19624;BME280;9959;49.798;9.928;2023-04-08T12:10:38;100193.31;;;10.46;63.30
19624;BME280;9959;49.798;9.928;2023-04-08T12:13:06;100196.88;;;10.88;61.47
19624;BME280;9959;49.798;9.928;2023-04-08T12:15:34;100190.13;;;11.12;60.56
19624;BME280;9959;49.798;9.928;2023-04-08T12:18:00;100193.78;;;10.57;63.52
19624;BME280;9959;49.798;9.928;2023-04-08T12:20:27;100198.84;;;10.73;62.79
19624;BME280;9959;49.798;9.928;2023-04-08T12:22:54;100200.19;;;10.90;61.99
19624;BME280;9959;49.798;9.928;2023-04-08T12:25:21;100202.72;;;10.29;63.72
19624;BME280;9959;49.798;9.928;2023-04-08T12:27:48;100201.28;;;10.68;63.69
19624;BME280;9959;49.798;9.928;2023-04-08T12:30:15;100207.50;;;10.62;63.91
19624;BME280;9959;49.798;9.928;2023-04-08T12:32:42;100210.00;;;10.70;63.93
19624;BME280;9959;49.798;9.928;2023-04-08T12:35:11;100216.47;;;10.41;64.71
19624;BME280;9959;49.798;9.928;2023-04-08T12:37:38;100202.97;;;10.13;65.91
19624;BME280;9959;49.798;9.928;2023-04-08T12:40:06;100217.75;;;10.45;65.00
19624;BME280;9959;49.798;9.928;2023-04-08T12:42:33;100216.41;;;10.06;66.52
19624;BME280;9959;49.798;9.928;2023-04-08T12:45:02;100204.78;;;10.27;66.06
19624;BME280;9959;49.798;9.928;2023-04-08T12:47:33;100212.63;;;10.01;66.77
19624;BME280;9959;49.798;9.928;2023-04-08T12:49:59;100207.38;;;9.93;66.54
19624;BME280;9959;49.798;9.928;2023-04-08T12:52:27;100213.00;;;9.98;67.14
19624;BME280;9959;49.798;9.928;2023-04-08T12:54:54;100207.97;;;10.16;66.44
19624;BME280;9959;49.798;9.928;2023-04-08T12:57:22;100206.69;;;10.68;63.86
19624;BME280;9959;49.798;9.928;2023-04-08T12:59:49;100206.66;;;10.61;64.66
19624;BME280;9959;49.798;9.928;2023-04-08T13:02:16;100202.38;;;9.90;67.38
19624;BME280;9959;49.798;9.928;2023-04-08T13:04:43;100205.63;;;9.85;68.01
19624;BME280;9959;49.798;9.928;2023-04-08T13:07:10;100206.88;;;9.82;68.99
19624;BME280;9959;49.798;9.928;2023-04-08T13:09:37;100214.25;;;9.74;69.54
19624;BME280;9959;49.798;9.928;2023-04-08T13:12:04;100215.91;;;9.75;69.37
19624;BME280;9959;49.798;9.928;2023-04-08T13:14:32;100220.06;;;9.77;69.40
19624;BME280;9959;49.798;9.928;2023-04-08T13:16:58;100212.66;;;9.79;69.31
19624;BME280;9959;49.798;9.928;2023-04-08T13:19:25;100216.75;;;9.75;69.45
19624;BME280;9959;49.798;9.928;2023-04-08T13:21:52;100209.63;;;10.17;67.21
19624;BME280;9959;49.798;9.928;2023-04-08T13:24:20;100203.41;;;10.16;67.17
19624;BME280;9959;49.798;9.928;2023-04-08T13:26:49;100205.00;;;11.01;64.04
19624;BME280;9959;49.798;9.928;2023-04-08T13:29:17;100206.41;;;11.51;62.42
19624;BME280;9959;49.798;9.928;2023-04-08T13:31:44;100200.78;;;11.53;62.17